sensor_id;sensor_type;location;lat;lon;timestamp;pressure;altitude;pressure_sealevel;temperature;humidity
10464;BME280;5279;42.048;24.638;2023-05-22T00:01:03;97161.81;;;15.45;100.00
10464;BME280;5279;42.048;24.638;2023-05-22T00:03:32;97159.50;;;15.42;100.00
10464;BME280;5279;42.048;24.638;2023-05-22T00:06:00;97158.03;;;15.39;100.00
10464;BME280;5279;42.048;24.638;2023-05-22T00:08:27;97163.22;;;15.41;100.00
10464;BME280;5279;42.048;24.638;2023-05-22T00:10:54;97156.59;;;15.37;100.00
10464;BME280;5279;42.048;24.638;2023-05-22T00:13:21;97158.53;;;15.28;100.00
10464;BME280;5279;42.048;24.638;2023-05-22T00:15:48;97161.63;;;15.17;100.00
10464;BME280;5279;42.048;24.638;2023-05-22T00:18:15;97159.16;;;15.15;100.00
10464;BME280;5279;42.048;24.638;2023-05-22T00:20:43;97155.13;;;15.19;100.00
10464;BME280;5279;42.048;24.638;2023-05-22T00:23:12;97164.69;;;15.28;100.00
10464;BME280;5279;42.048;24.638;2023-05-22T00:25:39;97166.63;;;15.35;100.00
10464;BME280;5279;42.048;24.638;2023-05-22T00:28:06;97154.53;;;15.39;100.00
10464;BME280;5279;42.048;24.638;2023-05-22T00:30:33;97158.88;;;15.40;100.00
10464;BME280;5279;42.048;24.638;2023-05-22T00:33:00;97161.19;;;15.43;100.00
10464;BME280;5279;42.048;24.638;2023-05-22T00:35:27;97160.81;;;15.46;100.00
10464;BME280;5279;42.048;24.638;2023-05-22T00:37:55;97167.47;;;15.50;100.00
10464;BME280;5279;42.048;24.638;2023-05-22T00:40:22;97170.66;;;15.60;100.00
10464;BME280;5279;42.048;24.638;2023-05-22T00:42:49;97165.69;;;15.42;100.00
10464;BME280;5279;42.048;24.638;2023-05-22T00:45:16;97161.47;;;15.48;100.00
10464;BME280;5279;42.048;24.638;2023-05-22T00:47:43;97167.47;;;15.50;100.00
10464;BME280;5279;42.048;24.638;2023-05-22T00:50:10;97172.44;;;15.53;100.00
10464;BME280;5279;42.048;24.638;2023-05-22T00:52:41;97174.00;;;15.47;100.00
10464;BME280;5279;42.048;24.638;2023-05-22T00:55:10;97167.94;;;15.53;100.00
10464;BME280;5279;42.048;24.638;2023-05-22T00:57:37;97166.72;;;15.56;100.00
10464;BME280;5279;42.048;24.638;2023-05-22T01:00:07;97159.88;;;15.39;100.00
10464;BME280;5279;42.048;24.638;2023-05-22T01:02:35;97162.84;;;15.44;100.00
10464;BME280;5279;42.048;24.638;2023-05-22T01:05:03;97163.78;;;15.51;100.00
10464;BME280;5279;42.048;24.638;2023-05-22T01:07:31;97170.78;;;15.52;100.00
10464;BME280;5279;42.048;24.638;2023-05-22T01:09:58;97172.81;;;15.50;100.00
10464;BME280;5279;42.048;24.638;2023-05-22T01:12:33;97172.16;;;15.48;100.00
10464;BME280;5279;42.048;24.638;2023-05-22T01:15:07;97173.72;;;15.57;100.00
10464;BME280;5279;42.048;24.638;2023-05-22T01:17:41;97168.81;;;15.60;100.00
10464;BME280;5279;42.048;24.638;2023-05-22T01:20:15;97165.44;;;15.52;100.00
10464;BME280;5279;42.048;24.638;2023-05-22T01:23:00;97160.47;;;15.49;100.00
10464;BME280;5279;42.048;24.638;2023-05-22T01:25:52;97166.34;;;15.59;100.00
10464;BME280;5279;42.048;24.638;2023-05-22T01:28:42;97163.13;;;15.63;100.00
10464;BME280;5279;42.048;24.638;2023-05-22T01:31:17;97165.06;;;15.55;100.00
10464;BME280;5279;42.048;24.638;2023-05-22T01:33:47;97160.81;;;15.46;100.00
10464;BME280;5279;42.048;24.638;2023-05-22T01:36:17;97157.63;;;15.50;100.00
10464;BME280;5279;42.048;24.638;2023-05-22T01:38:47;97158.81;;;15.48;100.00
10464;BME280;5279;42.048;24.638;2023-05-22T01:41:15;97162.97;;;15.50;100.00
10464;BME280;5279;42.048;24.638;2023-05-22T01:43:43;97157.50;;;15.44;100.00
10464;BME280;5279;42.048;24.638;2023-05-22T01:46:10;97158.88;;;15.54;100.00
10464;BME280;5279;42.048;24.638;2023-05-22T01:48:39;97159.97;;;15.60;100.00
10464;BME280;5279;42.048;24.638;2023-05-22T01:51:11;97157.25;;;15.53;100.00
10464;BME280;5279;42.048;24.638;2023-05-22T01:53:42;97149.41;;;15.52;100.00
10464;BME280;5279;42.048;24.638;2023-05-22T01:56:15;97153.09;;;15.51;100.00
10464;BME280;5279;42.048;24.638;2023-05-22T01:58:49;97144.78;;;15.46;100.00
10464;BME280;5279;42.048;24.638;2023-05-22T02:01:19;97149.66;;;15.42;100.00
10464;BME280;5279;42.048;24.638;2023-05-22T02:03:49;97150.88;;;15.40;100.00
10464;BME280;5279;42.048;24.638;2023-05-22T02:06:52;97153.72;;;15.38;100.00
10464;BME280;5279;42.048;24.638;2023-05-22T02:09:20;97147.56;;;15.38;100.00
10464;BME280;5279;42.048;24.638;2023-05-22T02:11:49;97151.88;;;15.39;100.00
10464;BME280;5279;42.048;24.638;2023-05-22T02:14:17;97156.47;;;15.45;100.00
10464;BME280;5279;42.048;24.638;2023-05-22T02:16:44;97161.31;;;15.49;100.00
10464;BME280;5279;42.048;24.638;2023-05-22T02:19:13;97166.44;;;15.36;100.00
10464;BME280;5279;42.048;24.638;2023-05-22T02:21:40;97156.22;;;15.40;100.00
10464;BME280;5279;42.048;24.638;2023-05-22T02:24:07;97159.81;;;15.47;100.00
10464;BME280;5279;42.048;24.638;2023-05-22T02:26:34;97160.47;;;15.49;100.00
10464;BME280;5279;42.048;24.638;2023-05-22T02:29:02;97156.44;;;15.53;100.00
10464;BME280;5279;42.048;24.638;2023-05-22T02:31:29;97167.81;;;15.47;100.00
10464;BME280;5279;42.048;24.638;2023-05-22T02:33:56;97163.22;;;15.41;100.00
10464;BME280;5279;42.048;24.638;2023-05-22T02:36:24;97168.38;;;15.27;100.00
10464;BME280;5279;42.048;24.638;2023-05-22T02:38:51;97171.13;;;15.19;100.00
10464;BME280;5279;42.048;24.638;2023-05-22T02:41:19;97172.69;;;15.14;100.00
10464;BME280;5279;42.048;24.638;2023-05-22T02:43:46;97164.50;;;15.15;100.00
10464;BME280;5279;42.048;24.638;2023-05-22T02:46:13;97161.47;;;15.18;100.00
10464;BME280;5279;42.048;24.638;2023-05-22T02:48:40;97160.34;;;15.27;100.00
10464;BME280;5279;42.048;24.638;2023-05-22T02:51:07;97168.38;;;15.27;100.00
10464;BME280;5279;42.048;24.638;2023-05-22T02:53:35;97169.72;;;15.23;100.00
10464;BME280;5279;42.048;24.638;2023-05-22T02:56:05;97164.03;;;15.26;100.00
10464;BME280;5279;42.048;24.638;2023-05-22T02:58:32;97159.44;;;15.20;100.00
10464;BME280;5279;42.048;24.638;2023-05-22T03:00:59;97160.84;;;15.16;100.00
10464;BME280;5279;42.048;24.638;2023-05-22T03:03:28;97161.09;;;15.21;100.00
10464;BME280;5279;42.048;24.638;2023-05-22T03:05:55;97160.91;;;15.23;100.00
10464;BME280;5279;42.048;24.638;2023-05-22T03:08:23;97158.06;;;15.24;100.00
10464;BME280;5279;42.048;24.638;2023-05-22T03:10:51;97167.06;;;15.23;100.00
10464;BME280;5279;42.048;24.638;2023-05-22T03:13:18;97157.69;;;15.27;100.00
10464;BME280;5279;42.048;24.638;2023-05-22T03:15:45;97162.28;;;15.33;100.00
10464;BME280;5279;42.048;24.638;2023-05-22T03:18:12;97162.75;;;15.37;100.00
10464;BME280;5279;42.048;24.638;2023-05-22T03:20:39;97162.00;;;15.43;100.00
10464;BME280;5279;42.048;24.638;2023-05-22T03:23:06;97166.81;;;15.48;100.00
10464;BME280;5279;42.048;24.638;2023-05-22T03:25:33;97166.25;;;15.38;100.00
10464;BME280;5279;42.048;24.638;2023-05-22T03:28:01;97156.22;;;15.40;100.00
10464;BME280;5279;42.048;24.638;2023-05-22T03:30:28;97165.97;;;15.32;100.00
10464;BME280;5279;42.048;24.638;2023-05-22T03:32:55;97161.47;;;15.33;100.00
10464;BME280;5279;42.048;24.638;2023-05-22T03:35:22;97167.72;;;15.25;100.00
10464;BME280;5279;42.048;24.638;2023-05-22T03:37:50;97168.00;;;15.30;100.00
10464;BME280;5279;42.048;24.638;2023-05-22T03:40:17;97169.72;;;15.23;100.00
10464;BME280;5279;42.048;24.638;2023-05-22T03:42:43;97165.06;;;15.25;100.00
10464;BME280;5279;42.048;24.638;2023-05-22T03:45:12;97168.72;;;15.24;100.00
10464;BME280;5279;42.048;24.638;2023-05-22T03:47:39;97170.28;;;15.33;100.00
10464;BME280;5279;42.048;24.638;2023-05-22T03:50:06;97158.69;;;15.41;100.00
10464;BME280;5279;42.048;24.638;2023-05-22T03:52:33;97165.69;;;15.42;100.00
10464;BME280;5279;42.048;24.638;2023-05-22T03:55:00;97168.09;;;15.37;100.00
10464;BME280;5279;42.048;24.638;2023-05-22T03:57:27;97175.75;;;15.55;100.00
10464;BME280;5279;42.048;24.638;2023-05-22T03:59:54;97170.50;;;15.61;100.00
10464;BME280;5279;42.048;24.638;2023-05-22T04:02:23;97172.97;;;15.63;100.00
10464;BME280;5279;42.048;24.638;2023-05-22T04:04:50;97165.50;;;15.73;100.00
10464;BME280;5279;42.048;24.638;2023-05-22T04:07:17;97167.78;;;15.76;100.00
10464;BME280;5279;42.048;24.638;2023-05-22T04:09:44;97174.88;;;15.83;100.00
10464;BME280;5279;42.048;24.638;2023-05-22T04:12:11;97174.19;;;15.96;100.00
10464;BME280;5279;42.048;24.638;2023-05-22T04:14:38;97172.66;;;16.08;100.00
10464;BME280;5279;42.048;24.638;2023-05-22T04:17:05;97178.38;;;16.05;100.00
10464;BME280;5279;42.048;24.638;2023-05-22T04:19:33;97180.97;;;16.13;100.00
10464;BME280;5279;42.048;24.638;2023-05-22T04:22:00;97180.06;;;16.06;100.00
10464;BME280;5279;42.048;24.638;2023-05-22T04:24:27;97181.97;;;16.12;100.00
10464;BME280;5279;42.048;24.638;2023-05-22T04:26:54;97180.88;;;16.07;100.00
10464;BME280;5279;42.048;24.638;2023-05-22T04:29:24;97179.88;;;16.08;100.00
10464;BME280;5279;42.048;24.638;2023-05-22T04:31:52;97177.22;;;16.08;100.00
10464;BME280;5279;42.048;24.638;2023-05-22T04:34:19;97178.09;;;16.15;100.00
10464;BME280;5279;42.048;24.638;2023-05-22T04:36:48;97188.72;;;16.29;100.00
10464;BME280;5279;42.048;24.638;2023-05-22T04:39:15;97191.53;;;16.42;100.00
10464;BME280;5279;42.048;24.638;2023-05-22T04:41:42;97189.94;;;16.48;100.00
10464;BME280;5279;42.048;24.638;2023-05-22T04:44:10;97185.81;;;16.46;100.00
10464;BME280;5279;42.048;24.638;2023-05-22T04:46:38;97189.38;;;16.31;100.00
10464;BME280;5279;42.048;24.638;2023-05-22T04:49:05;97178.22;;;16.28;100.00
10464;BME280;5279;42.048;24.638;2023-05-22T04:51:32;97179.75;;;16.37;100.00
10464;BME280;5279;42.048;24.638;2023-05-22T04:54:01;97195.81;;;16.37;100.00
10464;BME280;5279;42.048;24.638;2023-05-22T04:56:28;97192.06;;;16.31;100.00
10464;BME280;5279;42.048;24.638;2023-05-22T04:58:56;97192.81;;;16.47;100.00
10464;BME280;5279;42.048;24.638;2023-05-22T05:01:23;97193.66;;;16.47;100.00
10464;BME280;5279;42.048;24.638;2023-05-22T05:03:52;97185.19;;;16.65;100.00
10464;BME280;5279;42.048;24.638;2023-05-22T05:06:19;97181.06;;;16.62;100.00
10464;BME280;5279;42.048;24.638;2023-05-22T05:08:47;97194.34;;;16.77;100.00
10464;BME280;5279;42.048;24.638;2023-05-22T05:11:15;97199.84;;;16.90;100.00
10464;BME280;5279;42.048;24.638;2023-05-22T05:13:42;97200.69;;;16.97;100.00
10464;BME280;5279;42.048;24.638;2023-05-22T05:16:09;97184.50;;;17.05;100.00
10464;BME280;5279;42.048;24.638;2023-05-22T05:18:36;97184.13;;;17.15;100.00
10464;BME280;5279;42.048;24.638;2023-05-22T05:21:03;97183.25;;;17.35;100.00
10464;BME280;5279;42.048;24.638;2023-05-22T05:23:30;97180.88;;;17.54;100.00
10464;BME280;5279;42.048;24.638;2023-05-22T05:25:57;97178.53;;;17.72;100.00
10464;BME280;5279;42.048;24.638;2023-05-22T05:28:25;97185.19;;;17.89;100.00
10464;BME280;5279;42.048;24.638;2023-05-22T05:30:52;97179.06;;;18.08;100.00
10464;BME280;5279;42.048;24.638;2023-05-22T05:33:19;97183.84;;;18.19;100.00
10464;BME280;5279;42.048;24.638;2023-05-22T05:35:46;97186.16;;;18.35;100.00
10464;BME280;5279;42.048;24.638;2023-05-22T05:38:36;97193.59;;;18.46;100.00
10464;BME280;5279;42.048;24.638;2023-05-22T05:41:03;97197.38;;;18.59;100.00
10464;BME280;5279;42.048;24.638;2023-05-22T05:43:31;97188.09;;;18.68;100.00
10464;BME280;5279;42.048;24.638;2023-05-22T05:45:58;97184.16;;;18.64;100.00
10464;BME280;5279;42.048;24.638;2023-05-22T05:48:26;97186.22;;;18.55;100.00
10464;BME280;5279;42.048;24.638;2023-05-22T05:50:52;97184.50;;;18.34;100.00
10464;BME280;5279;42.048;24.638;2023-05-22T05:53:19;97194.41;;;18.40;100.00
10464;BME280;5279;42.048;24.638;2023-05-22T05:55:46;97188.63;;;18.43;100.00
10464;BME280;5279;42.048;24.638;2023-05-22T05:58:13;97201.88;;;18.51;100.00
10464;BME280;5279;42.048;24.638;2023-05-22T06:00:42;97202.53;;;18.67;100.00
10464;BME280;5279;42.048;24.638;2023-05-22T06:03:08;97208.13;;;18.72;100.00
10464;BME280;5279;42.048;24.638;2023-05-22T06:05:35;97226.69;;;18.80;100.00
10464;BME280;5279;42.048;24.638;2023-05-22T06:08:03;97234.16;;;18.78;100.00
10464;BME280;5279;42.048;24.638;2023-05-22T06:10:30;97249.59;;;18.76;100.00
10464;BME280;5279;42.048;24.638;2023-05-22T06:12:57;97251.88;;;18.66;100.00
10464;BME280;5279;42.048;24.638;2023-05-22T06:15:24;97249.59;;;18.63;100.00
10464;BME280;5279;42.048;24.638;2023-05-22T06:17:52;97243.72;;;18.39;100.00
10464;BME280;5279;42.048;24.638;2023-05-22T06:20:19;97233.78;;;18.20;100.00
10464;BME280;5279;42.048;24.638;2023-05-22T06:22:46;97235.38;;;18.08;100.00
10464;BME280;5279;42.048;24.638;2023-05-22T06:25:13;97229.72;;;17.83;100.00
10464;BME280;5279;42.048;24.638;2023-05-22T06:27:40;97243.78;;;17.58;100.00
10464;BME280;5279;42.048;24.638;2023-05-22T06:30:08;97249.56;;;17.33;100.00
10464;BME280;5279;42.048;24.638;2023-05-22T06:32:35;97237.38;;;17.03;100.00
10464;BME280;5279;42.048;24.638;2023-05-22T06:35:06;97246.81;;;17.20;100.00
10464;BME280;5279;42.048;24.638;2023-05-22T06:37:33;97237.28;;;17.45;100.00
10464;BME280;5279;42.048;24.638;2023-05-22T06:40:01;97240.16;;;17.72;100.00
10464;BME280;5279;42.048;24.638;2023-05-22T06:42:28;97240.88;;;17.87;100.00
10464;BME280;5279;42.048;24.638;2023-05-22T06:44:54;97231.84;;;18.01;100.00
10464;BME280;5279;42.048;24.638;2023-05-22T06:47:21;97240.53;;;18.10;100.00
10464;BME280;5279;42.048;24.638;2023-05-22T06:49:48;97247.59;;;18.17;100.00
10464;BME280;5279;42.048;24.638;2023-05-22T06:52:16;97245.97;;;18.29;100.00
10464;BME280;5279;42.048;24.638;2023-05-22T06:54:43;97248.97;;;18.61;100.00
10464;BME280;5279;42.048;24.638;2023-05-22T06:57:10;97244.06;;;18.97;100.00
10464;BME280;5279;42.048;24.638;2023-05-22T06:59:37;97254.03;;;19.42;100.00
10464;BME280;5279;42.048;24.638;2023-05-22T07:02:04;97252.88;;;19.83;100.00
10464;BME280;5279;42.048;24.638;2023-05-22T07:04:31;97259.22;;;20.08;100.00
10464;BME280;5279;42.048;24.638;2023-05-22T07:06:58;97265.16;;;20.23;100.00
10464;BME280;5279;42.048;24.638;2023-05-22T07:09:26;97253.31;;;20.37;100.00
10464;BME280;5279;42.048;24.638;2023-05-22T07:11:53;97252.47;;;20.43;100.00
10464;BME280;5279;42.048;24.638;2023-05-22T07:14:20;97256.91;;;20.62;100.00
10464;BME280;5279;42.048;24.638;2023-05-22T07:16:47;97252.34;;;20.69;85.45
10464;BME280;5279;42.048;24.638;2023-05-22T07:19:14;97257.72;;;20.69;80.45
10464;BME280;5279;42.048;24.638;2023-05-22T07:21:41;97258.03;;;20.80;81.96
10464;BME280;5279;42.048;24.638;2023-05-22T07:24:07;97258.41;;;20.90;82.52
10464;BME280;5279;42.048;24.638;2023-05-22T07:26:36;97266.16;;;21.11;79.15
10464;BME280;5279;42.048;24.638;2023-05-22T07:29:03;97262.44;;;21.37;80.32
10464;BME280;5279;42.048;24.638;2023-05-22T07:31:30;97263.16;;;21.68;77.88
10464;BME280;5279;42.048;24.638;2023-05-22T07:33:58;97267.63;;;22.17;81.32
10464;BME280;5279;42.048;24.638;2023-05-22T07:36:25;97256.00;;;22.35;66.71
10464;BME280;5279;42.048;24.638;2023-05-22T07:38:52;97259.91;;;22.39;58.81
10464;BME280;5279;42.048;24.638;2023-05-22T07:41:19;97245.34;;;22.40;63.08
10464;BME280;5279;42.048;24.638;2023-05-22T07:43:47;97256.03;;;22.65;60.54
10464;BME280;5279;42.048;24.638;2023-05-22T07:46:14;97247.19;;;22.88;62.16
10464;BME280;5279;42.048;24.638;2023-05-22T07:48:41;97259.34;;;23.08;56.49
10464;BME280;5279;42.048;24.638;2023-05-22T07:51:09;97254.09;;;23.25;59.98
10464;BME280;5279;42.048;24.638;2023-05-22T07:53:36;97246.59;;;23.50;59.99
10464;BME280;5279;42.048;24.638;2023-05-22T07:56:03;97258.88;;;23.53;58.47
10464;BME280;5279;42.048;24.638;2023-05-22T07:58:30;97246.72;;;23.78;60.64
10464;BME280;5279;42.048;24.638;2023-05-22T08:00:59;97242.84;;;23.98;56.07
10464;BME280;5279;42.048;24.638;2023-05-22T08:03:27;97250.22;;;24.14;58.82
10464;BME280;5279;42.048;24.638;2023-05-22T08:05:53;97244.56;;;24.27;61.72
10464;BME280;5279;42.048;24.638;2023-05-22T08:08:20;97240.41;;;24.36;55.33
10464;BME280;5279;42.048;24.638;2023-05-22T08:10:47;97241.88;;;24.55;55.91
10464;BME280;5279;42.048;24.638;2023-05-22T08:13:14;97237.22;;;24.67;55.11
10464;BME280;5279;42.048;24.638;2023-05-22T08:15:42;97236.66;;;24.65;56.52
10464;BME280;5279;42.048;24.638;2023-05-22T08:18:10;97241.69;;;24.73;54.50
10464;BME280;5279;42.048;24.638;2023-05-22T08:20:38;97229.75;;;24.86;58.08
10464;BME280;5279;42.048;24.638;2023-05-22T08:23:04;97227.22;;;24.68;54.48
10464;BME280;5279;42.048;24.638;2023-05-22T08:25:31;97238.00;;;24.51;52.63
10464;BME280;5279;42.048;24.638;2023-05-22T08:27:58;97238.25;;;24.38;57.56
10464;BME280;5279;42.048;24.638;2023-05-22T08:30:25;97235.44;;;24.73;54.20
10464;BME280;5279;42.048;24.638;2023-05-22T08:32:52;97240.25;;;24.82;54.08
10464;BME280;5279;42.048;24.638;2023-05-22T08:35:20;97242.94;;;24.54;51.57
10464;BME280;5279;42.048;24.638;2023-05-22T08:37:47;97245.06;;;24.52;51.30
10464;BME280;5279;42.048;24.638;2023-05-22T08:40:14;97240.22;;;24.54;51.45
10464;BME280;5279;42.048;24.638;2023-05-22T08:42:41;97241.00;;;24.66;51.78
10464;BME280;5279;42.048;24.638;2023-05-22T08:45:09;97241.19;;;24.76;50.19
10464;BME280;5279;42.048;24.638;2023-05-22T08:47:36;97232.56;;;25.08;50.92
10464;BME280;5279;42.048;24.638;2023-05-22T08:50:05;97232.56;;;25.08;48.76
10464;BME280;5279;42.048;24.638;2023-05-22T08:52:43;97234.88;;;25.16;47.41
10464;BME280;5279;42.048;24.638;2023-05-22T08:55:12;97244.91;;;25.32;46.46
10464;BME280;5279;42.048;24.638;2023-05-22T08:57:39;97233.56;;;25.35;46.98
10464;BME280;5279;42.048;24.638;2023-05-22T09:00:07;97237.28;;;25.29;48.18
10464;BME280;5279;42.048;24.638;2023-05-22T09:02:34;97231.16;;;25.38;48.68
10464;BME280;5279;42.048;24.638;2023-05-22T09:05:01;97231.91;;;25.34;48.90
10464;BME280;5279;42.048;24.638;2023-05-22T09:07:29;97235.69;;;25.16;46.76
10464;BME280;5279;42.048;24.638;2023-05-22T09:09:57;97227.81;;;25.31;47.48
10464;BME280;5279;42.048;24.638;2023-05-22T09:12:25;97225.19;;;25.53;49.00
10464;BME280;5279;42.048;24.638;2023-05-22T09:14:52;97226.13;;;25.80;48.20
10464;BME280;5279;42.048;24.638;2023-05-22T09:17:20;97231.28;;;25.98;48.22
10464;BME280;5279;42.048;24.638;2023-05-22T09:19:47;97219.72;;;25.86;48.04
10464;BME280;5279;42.048;24.638;2023-05-22T09:22:13;97231.19;;;25.93;47.75
10464;BME280;5279;42.048;24.638;2023-05-22T09:24:41;97233.53;;;26.06;48.37
10464;BME280;5279;42.048;24.638;2023-05-22T09:27:10;97230.84;;;26.06;44.70
10464;BME280;5279;42.048;24.638;2023-05-22T09:29:46;97226.38;;;26.39;44.51
10464;BME280;5279;42.048;24.638;2023-05-22T09:32:15;97226.66;;;26.64;45.10
10464;BME280;5279;42.048;24.638;2023-05-22T09:34:42;97226.09;;;26.62;41.79
10464;BME280;5279;42.048;24.638;2023-05-22T09:37:09;97225.47;;;26.55;46.20
10464;BME280;5279;42.048;24.638;2023-05-22T09:39:39;97240.69;;;26.13;47.01
10464;BME280;5279;42.048;24.638;2023-05-22T09:42:10;97244.44;;;25.68;47.49
10464;BME280;5279;42.048;24.638;2023-05-22T09:44:39;97233.06;;;25.38;43.35
10464;BME280;5279;42.048;24.638;2023-05-22T09:47:08;97234.03;;;25.15;44.43
10464;BME280;5279;42.048;24.638;2023-05-22T09:49:36;97226.16;;;25.14;45.62
10464;BME280;5279;42.048;24.638;2023-05-22T09:52:08;97228.13;;;25.35;45.98
10464;BME280;5279;42.048;24.638;2023-05-22T09:54:40;97235.06;;;25.59;43.09
10464;BME280;5279;42.048;24.638;2023-05-22T09:57:12;97229.41;;;25.82;43.46
10464;BME280;5279;42.048;24.638;2023-05-22T09:59:43;97225.63;;;25.83;39.79
10464;BME280;5279;42.048;24.638;2023-05-22T10:02:14;97225.25;;;25.96;42.49
10464;BME280;5279;42.048;24.638;2023-05-22T10:04:41;97220.75;;;26.24;40.87
10464;BME280;5279;42.048;24.638;2023-05-22T10:07:10;97209.47;;;25.93;37.81
10464;BME280;5279;42.048;24.638;2023-05-22T10:09:38;97217.47;;;26.22;39.30
10464;BME280;5279;42.048;24.638;2023-05-22T10:12:07;97210.66;;;25.81;36.65
10464;BME280;5279;42.048;24.638;2023-05-22T10:14:36;97204.28;;;25.70;35.74
10464;BME280;5279;42.048;24.638;2023-05-22T10:17:03;97206.56;;;25.45;37.42
10464;BME280;5279;42.048;24.638;2023-05-22T10:19:31;97190.66;;;25.15;37.85
10464;BME280;5279;42.048;24.638;2023-05-22T10:21:59;97202.16;;;25.22;39.03
10464;BME280;5279;42.048;24.638;2023-05-22T10:24:27;97194.69;;;25.13;39.39
10464;BME280;5279;42.048;24.638;2023-05-22T10:26:55;97196.97;;;25.37;39.61
10464;BME280;5279;42.048;24.638;2023-05-22T10:29:24;97198.69;;;25.27;37.52
10464;BME280;5279;42.048;24.638;2023-05-22T10:32:00;97200.84;;;25.58;37.06
10464;BME280;5279;42.048;24.638;2023-05-22T10:34:35;97204.28;;;25.70;37.32
10464;BME280;5279;42.048;24.638;2023-05-22T10:37:14;97200.44;;;25.88;36.96
10464;BME280;5279;42.048;24.638;2023-05-22T10:39:54;97205.47;;;26.18;36.88
10464;BME280;5279;42.048;24.638;2023-05-22T10:42:23;97196.06;;;26.25;35.49
10464;BME280;5279;42.048;24.638;2023-05-22T10:44:49;97199.28;;;26.44;34.85
10464;BME280;5279;42.048;24.638;2023-05-22T10:47:20;97193.53;;;26.67;34.65
10464;BME280;5279;42.048;24.638;2023-05-22T10:49:46;97192.84;;;26.55;33.96
10464;BME280;5279;42.048;24.638;2023-05-22T10:52:15;97186.16;;;26.89;35.17
10464;BME280;5279;42.048;24.638;2023-05-22T10:54:46;97178.16;;;27.04;32.71
10464;BME280;5279;42.048;24.638;2023-05-22T10:57:17;97178.34;;;27.30;33.55
10464;BME280;5279;42.048;24.638;2023-05-22T10:59:46;97170.94;;;27.57;33.14
10464;BME280;5279;42.048;24.638;2023-05-22T11:02:24;97155.19;;;27.64;32.20
10464;BME280;5279;42.048;24.638;2023-05-22T11:04:53;97153.72;;;27.93;33.62
10464;BME280;5279;42.048;24.638;2023-05-22T11:07:20;97158.56;;;27.86;32.85
10464;BME280;5279;42.048;24.638;2023-05-22T11:09:48;97154.47;;;27.84;31.09
10464;BME280;5279;42.048;24.638;2023-05-22T11:12:18;97145.41;;;27.68;31.75
10464;BME280;5279;42.048;24.638;2023-05-22T11:14:50;97144.44;;;27.94;32.68
10464;BME280;5279;42.048;24.638;2023-05-22T11:17:21;97129.53;;;28.07;33.49
10464;BME280;5279;42.048;24.638;2023-05-22T11:19:59;97131.25;;;28.23;35.07
10464;BME280;5279;42.048;24.638;2023-05-22T11:22:31;97128.22;;;28.14;35.01
10464;BME280;5279;42.048;24.638;2023-05-22T11:24:58;97131.19;;;28.13;33.18
10464;BME280;5279;42.048;24.638;2023-05-22T11:27:25;97124.53;;;27.89;33.28
10464;BME280;5279;42.048;24.638;2023-05-22T11:29:53;97126.03;;;28.11;33.78
10464;BME280;5279;42.048;24.638;2023-05-22T11:32:22;97140.78;;;28.26;32.27
10464;BME280;5279;42.048;24.638;2023-05-22T11:34:51;97136.44;;;28.30;33.35
10464;BME280;5279;42.048;24.638;2023-05-22T11:37:19;97138.03;;;28.20;34.62
10464;BME280;5279;42.048;24.638;2023-05-22T11:39:53;97139.81;;;27.90;31.29
10464;BME280;5279;42.048;24.638;2023-05-22T11:42:21;97143.13;;;27.50;31.04
10464;BME280;5279;42.048;24.638;2023-05-22T11:44:47;97144.81;;;27.56;31.93
10464;BME280;5279;42.048;24.638;2023-05-22T11:47:14;97133.78;;;27.41;36.42
10464;BME280;5279;42.048;24.638;2023-05-22T11:49:43;97144.91;;;26.97;33.50
10464;BME280;5279;42.048;24.638;2023-05-22T11:52:10;97143.56;;;26.73;33.53
10464;BME280;5279;42.048;24.638;2023-05-22T11:54:37;97148.19;;;26.73;34.42
10464;BME280;5279;42.048;24.638;2023-05-22T11:57:04;97150.03;;;26.67;33.55
10464;BME280;5279;42.048;24.638;2023-05-22T11:59:31;97146.03;;;26.48;33.96
10464;BME280;5279;42.048;24.638;2023-05-22T12:01:58;97141.59;;;26.37;34.27
10464;BME280;5279;42.048;24.638;2023-05-22T12:04:25;97147.47;;;26.29;34.98
10464;BME280;5279;42.048;24.638;2023-05-22T12:06:54;97146.31;;;25.81;39.35
10464;BME280;5279;42.048;24.638;2023-05-22T12:09:22;97155.28;;;25.60;44.83
10464;BME280;5279;42.048;24.638;2023-05-22T12:11:49;97165.16;;;25.33;48.00
10464;BME280;5279;42.048;24.638;2023-05-22T12:14:15;97157.28;;;25.15;50.59
10464;BME280;5279;42.048;24.638;2023-05-22T12:16:42;97157.03;;;24.99;51.32
10464;BME280;5279;42.048;24.638;2023-05-22T12:19:10;97146.25;;;24.71;50.94
10464;BME280;5279;42.048;24.638;2023-05-22T12:21:37;97151.56;;;24.94;52.00
10464;BME280;5279;42.048;24.638;2023-05-22T12:24:07;97156.28;;;25.21;53.71
10464;BME280;5279;42.048;24.638;2023-05-22T12:26:34;97153.22;;;25.67;54.22
10464;BME280;5279;42.048;24.638;2023-05-22T12:29:02;97151.00;;;25.64;51.82
10464;BME280;5279;42.048;24.638;2023-05-22T12:31:33;97163.75;;;25.85;51.34
10464;BME280;5279;42.048;24.638;2023-05-22T12:34:03;97161.59;;;25.87;50.86
10464;BME280;5279;42.048;24.638;2023-05-22T12:36:31;97150.50;;;26.11;51.15
10464;BME280;5279;42.048;24.638;2023-05-22T12:38:59;97162.69;;;26.08;52.53
10464;BME280;5279;42.048;24.638;2023-05-22T12:41:27;97166.38;;;26.19;48.94
10464;BME280;5279;42.048;24.638;2023-05-22T12:43:54;97158.75;;;26.42;52.35
10464;BME280;5279;42.048;24.638;2023-05-22T12:46:21;97148.19;;;26.46;47.58
10464;BME280;5279;42.048;24.638;2023-05-22T12:48:47;97142.88;;;26.56;50.04
10464;BME280;5279;42.048;24.638;2023-05-22T12:51:14;97140.31;;;26.71;44.47
10464;BME280;5279;42.048;24.638;2023-05-22T12:53:41;97137.22;;;26.89;46.39
10464;BME280;5279;42.048;24.638;2023-05-22T12:56:08;97142.16;;;26.92;44.15
10464;BME280;5279;42.048;24.638;2023-05-22T12:58:36;97137.28;;;26.99;42.36
10464;BME280;5279;42.048;24.638;2023-05-22T13:01:04;97143.56;;;26.73;41.72